sensor_id;sensor_type;location;lat;lon;timestamp;P1;durP1;ratioP1;P2;durP2;ratioP2
15039;SDS011;7617;47.366;8.558;2024-03-02T00:01:06;7.90;;;6.90;;
15039;SDS011;7617;47.366;8.558;2024-03-02T00:03:34;8.97;;;7.13;;
15039;SDS011;7617;47.366;8.558;2024-03-02T00:06:04;7.90;;;6.40;;
15039;SDS011;7617;47.366;8.558;2024-03-02T00:08:35;7.77;;;6.97;;
15039;SDS011;7617;47.366;8.558;2024-03-02T00:11:04;8.17;;;6.80;;
15039;SDS011;7617;47.366;8.558;2024-03-02T00:13:32;7.20;;;6.50;;
15039;SDS011;7617;47.366;8.558;2024-03-02T00:16:02;8.17;;;6.97;;
15039;SDS011;7617;47.366;8.558;2024-03-02T00:18:33;7.87;;;6.63;;
15039;SDS011;7617;47.366;8.558;2024-03-02T00:21:04;7.43;;;6.70;;
15039;SDS011;7617;47.366;8.558;2024-03-02T00:23:37;7.60;;;6.70;;
15039;SDS011;7617;47.366;8.558;2024-03-02T00:26:06;8.98;;;6.93;;
15039;SDS011;7617;47.366;8.558;2024-03-02T00:28:36;8.07;;;6.60;;
15039;SDS011;7617;47.366;8.558;2024-03-02T00:31:05;7.53;;;6.73;;
15039;SDS011;7617;47.366;8.558;2024-03-02T00:33:36;7.67;;;6.73;;
15039;SDS011;7617;47.366;8.558;2024-03-02T00:36:07;7.57;;;6.30;;
15039;SDS011;7617;47.366;8.558;2024-03-02T00:38:42;7.87;;;6.47;;
15039;SDS011;7617;47.366;8.558;2024-03-02T00:41:17;7.95;;;7.15;;
15039;SDS011;7617;47.366;8.558;2024-03-02T00:46:38;7.55;;;6.78;;
15039;SDS011;7617;47.366;8.558;2024-03-02T00:49:12;7.45;;;6.15;;
15039;SDS011;7617;47.366;8.558;2024-03-02T00:51:46;9.07;;;7.00;;
15039;SDS011;7617;47.366;8.558;2024-03-02T00:54:19;8.23;;;6.90;;
15039;SDS011;7617;47.366;8.558;2024-03-02T00:56:50;7.13;;;6.43;;
15039;SDS011;7617;47.366;8.558;2024-03-02T00:59:22;8.07;;;6.65;;
15039;SDS011;7617;47.366;8.558;2024-03-02T01:01:50;7.45;;;6.65;;
15039;SDS011;7617;47.366;8.558;2024-03-02T01:04:20;8.18;;;6.20;;
15039;SDS011;7617;47.366;8.558;2024-03-02T01:06:49;8.15;;;6.60;;
15039;SDS011;7617;47.366;8.558;2024-03-02T01:09:17;7.03;;;6.07;;
15039;SDS011;7617;47.366;8.558;2024-03-02T01:11:47;7.70;;;6.03;;
15039;SDS011;7617;47.366;8.558;2024-03-02T01:14:16;6.82;;;6.13;;
15039;SDS011;7617;47.366;8.558;2024-03-02T01:16:44;7.50;;;6.57;;
15039;SDS011;7617;47.366;8.558;2024-03-02T01:19:13;8.07;;;6.50;;
15039;SDS011;7617;47.366;8.558;2024-03-02T01:21:42;7.83;;;6.60;;
15039;SDS011;7617;47.366;8.558;2024-03-02T01:24:10;7.17;;;6.40;;
15039;SDS011;7617;47.366;8.558;2024-03-02T01:26:41;7.93;;;6.53;;
15039;SDS011;7617;47.366;8.558;2024-03-02T01:29:10;7.33;;;6.63;;
15039;SDS011;7617;47.366;8.558;2024-03-02T01:31:38;7.27;;;6.47;;
15039;SDS011;7617;47.366;8.558;2024-03-02T01:34:09;7.70;;;6.90;;
15039;SDS011;7617;47.366;8.558;2024-03-02T01:36:37;7.90;;;6.53;;
15039;SDS011;7617;47.366;8.558;2024-03-02T01:39:06;7.87;;;7.03;;
15039;SDS011;7617;47.366;8.558;2024-03-02T01:41:36;8.00;;;7.20;;
15039;SDS011;7617;47.366;8.558;2024-03-02T01:44:06;8.10;;;7.07;;
15039;SDS011;7617;47.366;8.558;2024-03-02T01:46:34;7.77;;;6.30;;
15039;SDS011;7617;47.366;8.558;2024-03-02T01:49:03;7.30;;;6.60;;
15039;SDS011;7617;47.366;8.558;2024-03-02T01:51:31;7.27;;;6.27;;
15039;SDS011;7617;47.366;8.558;2024-03-02T01:54:00;7.30;;;6.60;;
15039;SDS011;7617;47.366;8.558;2024-03-02T01:56:28;7.75;;;6.95;;
15039;SDS011;7617;47.366;8.558;2024-03-02T01:58:56;8.60;;;7.27;;
15039;SDS011;7617;47.366;8.558;2024-03-02T02:01:26;8.23;;;6.65;;
15039;SDS011;7617;47.366;8.558;2024-03-02T02:03:54;8.70;;;7.35;;
15039;SDS011;7617;47.366;8.558;2024-03-02T02:06:23;8.10;;;7.00;;
15039;SDS011;7617;47.366;8.558;2024-03-02T02:08:52;7.33;;;6.10;;
15039;SDS011;7617;47.366;8.558;2024-03-02T02:11:19;8.53;;;6.70;;
15039;SDS011;7617;47.366;8.558;2024-03-02T02:13:48;7.57;;;6.37;;
15039;SDS011;7617;47.366;8.558;2024-03-02T02:16:16;7.80;;;6.67;;
15039;SDS011;7617;47.366;8.558;2024-03-02T02:18:46;8.03;;;6.93;;
15039;SDS011;7617;47.366;8.558;2024-03-02T02:21:15;7.70;;;6.90;;
15039;SDS011;7617;47.366;8.558;2024-03-02T02:23:44;7.17;;;6.47;;
15039;SDS011;7617;47.366;8.558;2024-03-02T02:26:15;9.10;;;6.73;;
15039;SDS011;7617;47.366;8.558;2024-03-02T02:28:43;8.17;;;6.97;;
15039;SDS011;7617;47.366;8.558;2024-03-02T02:31:13;7.40;;;6.37;;
15039;SDS011;7617;47.366;8.558;2024-03-02T02:33:42;7.10;;;6.30;;
15039;SDS011;7617;47.366;8.558;2024-03-02T02:36:11;6.67;;;5.60;;
15039;SDS011;7617;47.366;8.558;2024-03-02T02:38:40;6.90;;;6.03;;
15039;SDS011;7617;47.366;8.558;2024-03-02T02:41:13;7.33;;;5.87;;
15039;SDS011;7617;47.366;8.558;2024-03-02T02:43:41;8.33;;;5.90;;
15039;SDS011;7617;47.366;8.558;2024-03-02T02:46:10;6.63;;;5.90;;
15039;SDS011;7617;47.366;8.558;2024-03-02T02:48:38;7.00;;;6.00;;
15039;SDS011;7617;47.366;8.558;2024-03-02T02:51:06;7.10;;;6.17;;
15039;SDS011;7617;47.366;8.558;2024-03-02T02:53:35;7.13;;;5.87;;
15039;SDS011;7617;47.366;8.558;2024-03-02T02:56:07;9.30;;;7.23;;
15039;SDS011;7617;47.366;8.558;2024-03-02T02:58:36;9.77;;;6.10;;
15039;SDS011;7617;47.366;8.558;2024-03-02T03:01:04;7.23;;;6.43;;
15039;SDS011;7617;47.366;8.558;2024-03-02T03:03:33;7.13;;;6.40;;
15039;SDS011;7617;47.366;8.558;2024-03-02T03:06:01;6.47;;;5.80;;
15039;SDS011;7617;47.366;8.558;2024-03-02T03:08:29;6.30;;;5.67;;
15039;SDS011;7617;47.366;8.558;2024-03-02T03:10:58;6.97;;;6.27;;
15039;SDS011;7617;47.366;8.558;2024-03-02T03:13:26;8.10;;;5.97;;
15039;SDS011;7617;47.366;8.558;2024-03-02T03:15:56;7.30;;;6.00;;
15039;SDS011;7617;47.366;8.558;2024-03-02T03:18:25;6.90;;;5.80;;
15039;SDS011;7617;47.366;8.558;2024-03-02T03:20:53;6.10;;;5.13;;
15039;SDS011;7617;47.366;8.558;2024-03-02T03:23:21;6.90;;;5.50;;
15039;SDS011;7617;47.366;8.558;2024-03-02T03:25:49;6.50;;;5.80;;
15039;SDS011;7617;47.366;8.558;2024-03-02T03:28:18;5.73;;;4.80;;
15039;SDS011;7617;47.366;8.558;2024-03-02T03:30:46;5.50;;;4.57;;
15039;SDS011;7617;47.366;8.558;2024-03-02T03:33:16;5.97;;;5.10;;
15039;SDS011;7617;47.366;8.558;2024-03-02T03:35:44;5.43;;;4.83;;
15039;SDS011;7617;47.366;8.558;2024-03-02T03:38:13;5.33;;;4.20;;
15039;SDS011;7617;47.366;8.558;2024-03-02T03:40:41;6.27;;;5.43;;
15039;SDS011;7617;47.366;8.558;2024-03-02T03:43:10;4.70;;;4.27;;
15039;SDS011;7617;47.366;8.558;2024-03-02T03:45:39;5.93;;;4.68;;
15039;SDS011;7617;47.366;8.558;2024-03-02T03:48:08;5.17;;;4.63;;
15039;SDS011;7617;47.366;8.558;2024-03-02T03:50:37;4.93;;;4.40;;
15039;SDS011;7617;47.366;8.558;2024-03-02T03:53:06;4.93;;;4.40;;
15039;SDS011;7617;47.366;8.558;2024-03-02T03:55:34;5.70;;;4.80;;
15039;SDS011;7617;47.366;8.558;2024-03-02T03:58:03;6.13;;;4.53;;
15039;SDS011;7617;47.366;8.558;2024-03-02T04:00:31;6.00;;;4.60;;
15039;SDS011;7617;47.366;8.558;2024-03-02T04:03:00;5.20;;;4.70;;
15039;SDS011;7617;47.366;8.558;2024-03-02T04:05:28;6.87;;;4.90;;
15039;SDS011;7617;47.366;8.558;2024-03-02T04:07:57;6.00;;;5.03;;
15039;SDS011;7617;47.366;8.558;2024-03-02T04:10:27;6.93;;;5.07;;
15039;SDS011;7617;47.366;8.558;2024-03-02T04:12:57;6.50;;;4.93;;
15039;SDS011;7617;47.366;8.558;2024-03-02T04:15:25;4.73;;;4.17;;
15039;SDS011;7617;47.366;8.558;2024-03-02T04:17:54;4.67;;;4.17;;
15039;SDS011;7617;47.366;8.558;2024-03-02T04:20:22;5.57;;;4.50;;
15039;SDS011;7617;47.366;8.558;2024-03-02T04:22:50;5.80;;;4.63;;
15039;SDS011;7617;47.366;8.558;2024-03-02T04:25:20;4.97;;;4.20;;
15039;SDS011;7617;47.366;8.558;2024-03-02T04:27:49;5.13;;;4.47;;
15039;SDS011;7617;47.366;8.558;2024-03-02T04:30:19;5.20;;;4.30;;
15039;SDS011;7617;47.366;8.558;2024-03-02T04:32:47;5.00;;;4.30;;
15039;SDS011;7617;47.366;8.558;2024-03-02T04:35:17;5.90;;;4.43;;
15039;SDS011;7617;47.366;8.558;2024-03-02T04:37:46;5.70;;;4.50;;
15039;SDS011;7617;47.366;8.558;2024-03-02T04:40:14;4.83;;;4.33;;
15039;SDS011;7617;47.366;8.558;2024-03-02T04:42:44;5.27;;;4.30;;
15039;SDS011;7617;47.366;8.558;2024-03-02T04:45:12;4.80;;;4.30;;
15039;SDS011;7617;47.366;8.558;2024-03-02T04:47:41;5.73;;;4.80;;
15039;SDS011;7617;47.366;8.558;2024-03-02T04:50:10;5.07;;;4.40;;
15039;SDS011;7617;47.366;8.558;2024-03-02T04:52:38;5.03;;;3.97;;
15039;SDS011;7617;47.366;8.558;2024-03-02T04:55:06;4.83;;;3.70;;
15039;SDS011;7617;47.366;8.558;2024-03-02T04:57:47;5.90;;;4.40;;
15039;SDS011;7617;47.366;8.558;2024-03-02T05:00:18;5.23;;;4.27;;
15039;SDS011;7617;47.366;8.558;2024-03-02T05:02:47;6.20;;;4.93;;
15039;SDS011;7617;47.366;8.558;2024-03-02T05:05:15;6.30;;;4.70;;
15039;SDS011;7617;47.366;8.558;2024-03-02T05:07:44;5.97;;;5.27;;
15039;SDS011;7617;47.366;8.558;2024-03-02T05:10:12;9.57;;;7.13;;
15039;SDS011;7617;47.366;8.558;2024-03-02T05:12:41;8.27;;;6.53;;
15039;SDS011;7617;47.366;8.558;2024-03-02T05:15:25;8.43;;;6.63;;
15039;SDS011;7617;47.366;8.558;2024-03-02T05:17:54;8.80;;;7.57;;
15039;SDS011;7617;47.366;8.558;2024-03-02T05:20:24;11.27;;;8.30;;
15039;SDS011;7617;47.366;8.558;2024-03-02T05:22:52;10.07;;;8.20;;
15039;SDS011;7617;47.366;8.558;2024-03-02T05:25:20;20.10;;;8.73;;
15039;SDS011;7617;47.366;8.558;2024-03-02T05:27:49;53.67;;;10.53;;
15039;SDS011;7617;47.366;8.558;2024-03-02T05:30:18;19.43;;;7.73;;
15039;SDS011;7617;47.366;8.558;2024-03-02T05:32:47;10.77;;;7.83;;
15039;SDS011;7617;47.366;8.558;2024-03-02T05:35:16;17.03;;;7.97;;
15039;SDS011;7617;47.366;8.558;2024-03-02T05:37:43;12.63;;;7.50;;
15039;SDS011;7617;47.366;8.558;2024-03-02T05:40:12;11.27;;;8.00;;
15039;SDS011;7617;47.366;8.558;2024-03-02T05:42:41;8.97;;;7.20;;
15039;SDS011;7617;47.366;8.558;2024-03-02T05:45:09;11.33;;;7.27;;
15039;SDS011;7617;47.366;8.558;2024-03-02T05:47:37;8.13;;;7.07;;
15039;SDS011;7617;47.366;8.558;2024-03-02T05:50:07;7.60;;;6.43;;
15039;SDS011;7617;47.366;8.558;2024-03-02T05:52:36;8.03;;;6.40;;
15039;SDS011;7617;47.366;8.558;2024-03-02T05:55:05;7.27;;;6.27;;
15039;SDS011;7617;47.366;8.558;2024-03-02T05:57:34;6.83;;;5.87;;
15039;SDS011;7617;47.366;8.558;2024-03-02T06:00:16;7.90;;;6.10;;
15039;SDS011;7617;47.366;8.558;2024-03-02T06:02:45;7.80;;;6.23;;
15039;SDS011;7617;47.366;8.558;2024-03-02T06:05:15;6.83;;;5.23;;
15039;SDS011;7617;47.366;8.558;2024-03-02T06:07:43;5.37;;;4.37;;
15039;SDS011;7617;47.366;8.558;2024-03-02T06:10:12;5.93;;;4.87;;
15039;SDS011;7617;47.366;8.558;2024-03-02T06:12:41;6.50;;;4.47;;
15039;SDS011;7617;47.366;8.558;2024-03-02T06:15:09;5.43;;;4.00;;
15039;SDS011;7617;47.366;8.558;2024-03-02T06:17:38;5.77;;;4.10;;
15039;SDS011;7617;47.366;8.558;2024-03-02T06:20:06;7.40;;;5.10;;
15039;SDS011;7617;47.366;8.558;2024-03-02T06:22:37;10.60;;;7.00;;
15039;SDS011;7617;47.366;8.558;2024-03-02T06:25:06;9.70;;;7.10;;
15039;SDS011;7617;47.366;8.558;2024-03-02T06:27:35;11.27;;;7.33;;
15039;SDS011;7617;47.366;8.558;2024-03-02T06:30:04;11.10;;;8.30;;
15039;SDS011;7617;47.366;8.558;2024-03-02T06:32:34;10.47;;;8.17;;
15039;SDS011;7617;47.366;8.558;2024-03-02T06:35:03;10.90;;;8.53;;
15039;SDS011;7617;47.366;8.558;2024-03-02T06:37:32;15.80;;;9.60;;
15039;SDS011;7617;47.366;8.558;2024-03-02T06:40:02;14.20;;;9.47;;
15039;SDS011;7617;47.366;8.558;2024-03-02T06:42:31;13.80;;;9.53;;
15039;SDS011;7617;47.366;8.558;2024-03-02T06:45:00;13.23;;;9.33;;
15039;SDS011;7617;47.366;8.558;2024-03-02T06:47:28;13.83;;;9.80;;
15039;SDS011;7617;47.366;8.558;2024-03-02T06:49:56;26.93;;;10.00;;
15039;SDS011;7617;47.366;8.558;2024-03-02T06:52:25;13.17;;;9.77;;
15039;SDS011;7617;47.366;8.558;2024-03-02T06:54:53;15.20;;;9.40;;
15039;SDS011;7617;47.366;8.558;2024-03-02T06:57:23;13.67;;;8.97;;
15039;SDS011;7617;47.366;8.558;2024-03-02T06:59:52;16.07;;;9.17;;
15039;SDS011;7617;47.366;8.558;2024-03-02T07:02:21;21.93;;;9.60;;
15039;SDS011;7617;47.366;8.558;2024-03-02T07:04:52;14.60;;;10.10;;
15039;SDS011;7617;47.366;8.558;2024-03-02T07:07:20;22.83;;;9.57;;
15039;SDS011;7617;47.366;8.558;2024-03-02T07:09:49;23.17;;;9.90;;
15039;SDS011;7617;47.366;8.558;2024-03-02T07:12:17;40.00;;;9.37;;
15039;SDS011;7617;47.366;8.558;2024-03-02T07:14:47;19.70;;;9.93;;
15039;SDS011;7617;47.366;8.558;2024-03-02T07:17:34;20.80;;;9.50;;
15039;SDS011;7617;47.366;8.558;2024-03-02T07:20:03;13.07;;;9.30;;
15039;SDS011;7617;47.366;8.558;2024-03-02T07:22:33;12.40;;;9.57;;
15039;SDS011;7617;47.366;8.558;2024-03-02T07:25:02;12.57;;;8.17;;
15039;SDS011;7617;47.366;8.558;2024-03-02T07:27:31;13.67;;;8.77;;
15039;SDS011;7617;47.366;8.558;2024-03-02T07:30:01;18.20;;;9.37;;
15039;SDS011;7617;47.366;8.558;2024-03-02T07:32:30;23.50;;;9.40;;
15039;SDS011;7617;47.366;8.558;2024-03-02T07:34:58;25.90;;;9.13;;
15039;SDS011;7617;47.366;8.558;2024-03-02T07:37:28;25.33;;;9.67;;
15039;SDS011;7617;47.366;8.558;2024-03-02T07:39:57;9.87;;;8.33;;
15039;SDS011;7617;47.366;8.558;2024-03-02T07:42:26;10.97;;;8.33;;
15039;SDS011;7617;47.366;8.558;2024-03-02T07:44:56;10.27;;;7.67;;
15039;SDS011;7617;47.366;8.558;2024-03-02T07:47:26;11.00;;;8.80;;
15039;SDS011;7617;47.366;8.558;2024-03-02T07:49:54;9.37;;;8.00;;
15039;SDS011;7617;47.366;8.558;2024-03-02T07:52:22;9.43;;;7.77;;
15039;SDS011;7617;47.366;8.558;2024-03-02T07:54:51;11.70;;;7.83;;
15039;SDS011;7617;47.366;8.558;2024-03-02T07:57:19;9.60;;;8.60;;
15039;SDS011;7617;47.366;8.558;2024-03-02T07:59:47;10.80;;;8.73;;
15039;SDS011;7617;47.366;8.558;2024-03-02T08:02:16;9.00;;;7.95;;
15039;SDS011;7617;47.366;8.558;2024-03-02T08:04:46;10.82;;;8.75;;
15039;SDS011;7617;47.366;8.558;2024-03-02T08:07:14;12.20;;;9.20;;
15039;SDS011;7617;47.366;8.558;2024-03-02T08:09:43;10.70;;;8.53;;
15039;SDS011;7617;47.366;8.558;2024-03-02T08:12:12;9.75;;;8.35;;
15039;SDS011;7617;47.366;8.558;2024-03-02T08:14:40;10.45;;;8.18;;
15039;SDS011;7617;47.366;8.558;2024-03-02T08:17:08;10.27;;;8.53;;
15039;SDS011;7617;47.366;8.558;2024-03-02T08:19:37;15.25;;;13.05;;
15039;SDS011;7617;47.366;8.558;2024-03-02T08:22:07;10.37;;;8.83;;
15039;SDS011;7617;47.366;8.558;2024-03-02T08:24:36;10.25;;;8.25;;
15039;SDS011;7617;47.366;8.558;2024-03-02T08:27:04;10.40;;;8.68;;
15039;SDS011;7617;47.366;8.558;2024-03-02T08:29:32;10.63;;;9.10;;
15039;SDS011;7617;47.366;8.558;2024-03-02T08:32:01;11.73;;;9.67;;
15039;SDS011;7617;47.366;8.558;2024-03-02T08:34:29;10.80;;;9.30;;
15039;SDS011;7617;47.366;8.558;2024-03-02T08:36:57;11.10;;;9.63;;
15039;SDS011;7617;47.366;8.558;2024-03-02T08:39:27;11.90;;;9.60;;
15039;SDS011;7617;47.366;8.558;2024-03-02T08:41:56;11.05;;;9.35;;
15039;SDS011;7617;47.366;8.558;2024-03-02T08:44:24;10.20;;;9.10;;
15039;SDS011;7617;47.366;8.558;2024-03-02T08:46:53;9.70;;;8.57;;
15039;SDS011;7617;47.366;8.558;2024-03-02T08:49:21;10.18;;;8.98;;
15039;SDS011;7617;47.366;8.558;2024-03-02T08:51:50;9.80;;;8.70;;
15039;SDS011;7617;47.366;8.558;2024-03-02T08:54:22;11.60;;;9.57;;
15039;SDS011;7617;47.366;8.558;2024-03-02T08:56:51;12.00;;;10.27;;
15039;SDS011;7617;47.366;8.558;2024-03-02T08:59:20;14.13;;;10.93;;
15039;SDS011;7617;47.366;8.558;2024-03-02T09:01:48;15.85;;;11.93;;
15039;SDS011;7617;47.366;8.558;2024-03-02T09:04:17;16.85;;;12.43;;
15039;SDS011;7617;47.366;8.558;2024-03-02T09:06:44;21.45;;;14.10;;
15039;SDS011;7617;47.366;8.558;2024-03-02T09:09:13;20.27;;;15.43;;
15039;SDS011;7617;47.366;8.558;2024-03-02T09:11:41;19.92;;;14.38;;
15039;SDS011;7617;47.366;8.558;2024-03-02T09:14:10;22.25;;;15.32;;
15039;SDS011;7617;47.366;8.558;2024-03-02T09:16:39;19.83;;;14.63;;
15039;SDS011;7617;47.366;8.558;2024-03-02T09:19:09;20.00;;;14.25;;
15039;SDS011;7617;47.366;8.558;2024-03-02T09:21:39;17.55;;;13.50;;
15039;SDS011;7617;47.366;8.558;2024-03-02T09:24:10;19.50;;;14.07;;
15039;SDS011;7617;47.366;8.558;2024-03-02T09:26:43;15.85;;;13.05;;
15039;SDS011;7617;47.366;8.558;2024-03-02T09:29:13;16.00;;;12.90;;
15039;SDS011;7617;47.366;8.558;2024-03-02T09:31:41;15.63;;;11.65;;
15039;SDS011;7617;47.366;8.558;2024-03-02T09:34:10;19.00;;;11.40;;
15039;SDS011;7617;47.366;8.558;2024-03-02T09:36:38;14.07;;;11.17;;
15039;SDS011;7617;47.366;8.558;2024-03-02T09:39:07;15.38;;;11.52;;
15039;SDS011;7617;47.366;8.558;2024-03-02T09:41:36;14.18;;;11.00;;
15039;SDS011;7617;47.366;8.558;2024-03-02T09:44:05;14.00;;;11.90;;
15039;SDS011;7617;47.366;8.558;2024-03-02T09:46:35;12.90;;;11.37;;
15039;SDS011;7617;47.366;8.558;2024-03-02T09:49:04;14.43;;;11.88;;
15039;SDS011;7617;47.366;8.558;2024-03-02T09:51:32;13.63;;;11.40;;
15039;SDS011;7617;47.366;8.558;2024-03-02T09:54:01;11.35;;;10.13;;
15039;SDS011;7617;47.366;8.558;2024-03-02T09:56:44;10.90;;;9.77;;
15039;SDS011;7617;47.366;8.558;2024-03-02T09:59:12;9.32;;;8.38;;
15039;SDS011;7617;47.366;8.558;2024-03-02T10:01:56;9.00;;;7.20;;
15039;SDS011;7617;47.366;8.558;2024-03-02T10:04:26;7.80;;;7.00;;
15039;SDS011;7617;47.366;8.558;2024-03-02T10:07:09;7.77;;;6.97;;
15039;SDS011;7617;47.366;8.558;2024-03-02T10:09:41;7.70;;;6.97;;
15039;SDS011;7617;47.366;8.558;2024-03-02T10:12:12;7.65;;;6.55;;
15039;SDS011;7617;47.366;8.558;2024-03-02T10:14:41;7.03;;;6.35;;
15039;SDS011;7617;47.366;8.558;2024-03-02T10:17:11;7.38;;;6.60;;
15039;SDS011;7617;47.366;8.558;2024-03-02T10:19:41;7.93;;;7.13;;
15039;SDS011;7617;47.366;8.558;2024-03-02T10:22:09;7.55;;;6.85;;
15039;SDS011;7617;47.366;8.558;2024-03-02T10:24:38;8.23;;;6.55;;
15039;SDS011;7617;47.366;8.558;2024-03-02T10:27:08;8.73;;;6.95;;
15039;SDS011;7617;47.366;8.558;2024-03-02T10:29:38;6.82;;;6.13;;
15039;SDS011;7617;47.366;8.558;2024-03-02T10:32:10;7.20;;;6.15;;
15039;SDS011;7617;47.366;8.558;2024-03-02T10:34:40;7.30;;;6.60;;
15039;SDS011;7617;47.366;8.558;2024-03-02T10:37:10;9.15;;;6.95;;
15039;SDS011;7617;47.366;8.558;2024-03-02T10:39:40;7.32;;;6.63;;
15039;SDS011;7617;47.366;8.558;2024-03-02T10:42:08;7.30;;;6.20;;
15039;SDS011;7617;47.366;8.558;2024-03-02T10:44:37;6.35;;;5.75;;
15039;SDS011;7617;47.366;8.558;2024-03-02T10:47:06;6.63;;;5.82;;
15039;SDS011;7617;47.366;8.558;2024-03-02T10:49:38;6.85;;;6.15;;
15039;SDS011;7617;47.366;8.558;2024-03-02T10:52:10;6.97;;;5.90;;
15039;SDS011;7617;47.366;8.558;2024-03-02T10:54:38;6.70;;;6.00;;
15039;SDS011;7617;47.366;8.558;2024-03-02T10:57:07;6.75;;;6.15;;
15039;SDS011;7617;47.366;8.558;2024-03-02T10:59:41;6.75;;;6.05;;
15039;SDS011;7617;47.366;8.558;2024-03-02T11:02:19;6.68;;;5.97;;
15039;SDS011;7617;47.366;8.558;2024-03-02T11:04:50;7.07;;;6.45;;
15039;SDS011;7617;47.366;8.558;2024-03-02T11:07:22;6.90;;;6.30;;
15039;SDS011;7617;47.366;8.558;2024-03-02T11:09:53;6.72;;;6.03;;
15039;SDS011;7617;47.366;8.558;2024-03-02T11:12:28;6.00;;;5.50;;
15039;SDS011;7617;47.366;8.558;2024-03-02T11:14:58;7.45;;;6.75;;
15039;SDS011;7617;47.366;8.558;2024-03-02T11:17:28;7.40;;;6.70;;
15039;SDS011;7617;47.366;8.558;2024-03-02T11:19:58;7.72;;;7.07;;
15039;SDS011;7617;47.366;8.558;2024-03-02T11:22:28;7.45;;;6.78;;
15039;SDS011;7617;47.366;8.558;2024-03-02T11:24:56;7.90;;;7.20;;
15039;SDS011;7617;47.366;8.558;2024-03-02T11:30:49;7.22;;;6.53;;
15039;SDS011;7617;47.366;8.558;2024-03-02T11:33:25;7.03;;;6.32;;
15039;SDS011;7617;47.366;8.558;2024-03-02T11:35:57;6.93;;;6.32;;
15039;SDS011;7617;47.366;8.558;2024-03-02T11:38:30;7.85;;;7.15;;
15039;SDS011;7617;47.366;8.558;2024-03-02T11:41:00;6.88;;;6.28;;
15039;SDS011;7617;47.366;8.558;2024-03-02T11:43:30;7.57;;;6.53;;
15039;SDS011;7617;47.366;8.558;2024-03-02T11:46:00;7.53;;;6.82;;
15039;SDS011;7617;47.366;8.558;2024-03-02T11:48:35;7.47;;;6.78;;
15039;SDS011;7617;47.366;8.558;2024-03-02T11:51:05;7.40;;;6.70;;
15039;SDS011;7617;47.366;8.558;2024-03-02T11:53:34;7.68;;;6.97;;
15039;SDS011;7617;47.366;8.558;2024-03-02T11:56:06;7.28;;;6.68;;
15039;SDS011;7617;47.366;8.558;2024-03-02T11:58:39;7.57;;;6.88;;
15039;SDS011;7617;47.366;8.558;2024-03-02T12:01:07;6.93;;;6.32;;
15039;SDS011;7617;47.366;8.558;2024-03-02T12:03:36;6.82;;;6.22;;
15039;SDS011;7617;47.366;8.558;2024-03-02T12:06:07;7.60;;;6.90;;
15039;SDS011;7617;47.366;8.558;2024-03-02T12:08:36;7.30;;;6.70;;
15039;SDS011;7617;47.366;8.558;2024-03-02T12:11:04;7.90;;;7.10;;
15039;SDS011;7617;47.366;8.558;2024-03-02T12:13:33;7.28;;;6.60;;
15039;SDS011;7617;47.366;8.558;2024-03-02T12:16:01;7.88;;;7.07;;
15039;SDS011;7617;47.366;8.558;2024-03-02T12:18:30;7.88;;;7.18;;
15039;SDS011;7617;47.366;8.558;2024-03-02T12:20:58;7.78;;;6.97;;
15039;SDS011;7617;47.366;8.558;2024-03-02T12:23:30;3.80;;;3.50;;
15039;SDS011;7617;47.366;8.558;2024-03-02T12:25:59;3.03;;;2.83;;
15039;SDS011;7617;47.366;8.558;2024-03-02T12:28:27;2.88;;;2.67;;
15039;SDS011;7617;47.366;8.558;2024-03-02T12:30:58;3.00;;;2.70;;
15039;SDS011;7617;47.366;8.558;2024-03-02T12:33:26;2.83;;;2.63;;
15039;SDS011;7617;47.366;8.558;2024-03-02T12:35:56;3.20;;;2.90;;
15039;SDS011;7617;47.366;8.558;2024-03-02T12:38:25;3.05;;;2.67;;
15039;SDS011;7617;47.366;8.558;2024-03-02T12:40:55;3.30;;;3.00;;
15039;SDS011;7617;47.366;8.558;2024-03-02T12:43:24;3.47;;;3.13;;
15039;SDS011;7617;47.366;8.558;2024-03-02T12:45:58;3.60;;;3.30;;
15039;SDS011;7617;47.366;8.558;2024-03-02T12:48:26;3.22;;;3.00;;
15039;SDS011;7617;47.366;8.558;2024-03-02T12:50:55;3.63;;;3.33;;
15039;SDS011;7617;47.366;8.558;2024-03-02T12:53:23;3.63;;;3.33;;
15039;SDS011;7617;47.366;8.558;2024-03-02T12:55:52;3.58;;;3.28;;
15039;SDS011;7617;47.366;8.558;2024-03-02T12:58:24;3.72;;;3.42;;
15039;SDS011;7617;47.366;8.558;2024-03-02T13:01:05;4.20;;;3.80;;
15039;SDS011;7617;47.366;8.558;2024-03-02T13:03:35;3.60;;;3.30;;
15039;SDS011;7617;47.366;8.558;2024-03-02T13:06:04;4.68;;;3.63;;
15039;SDS011;7617;47.366;8.558;2024-03-02T13:08:33;4.18;;;3.78;;
15039;SDS011;7617;47.366;8.558;2024-03-02T13:11:01;4.57;;;4.10;;
15039;SDS011;7617;47.366;8.558;2024-03-02T13:13:31;4.40;;;4.00;;
15039;SDS011;7617;47.366;8.558;2024-03-02T13:16:01;4.82;;;4.43;;
15039;SDS011;7617;47.366;8.558;2024-03-02T13:18:33;4.50;;;4.10;;
15039;SDS011;7617;47.366;8.558;2024-03-02T13:21:01;4.25;;;3.95;;
15039;SDS011;7617;47.366;8.558;2024-03-02T13:23:30;4.68;;;4.28;;
15039;SDS011;7617;47.366;8.558;2024-03-02T13:25:58;4.50;;;4.10;;
15039;SDS011;7617;47.366;8.558;2024-03-02T13:28:26;5.10;;;4.68;;
15039;SDS011;7617;47.366;8.558;2024-03-02T13:30:57;5.30;;;4.80;;
15039;SDS011;7617;47.366;8.558;2024-03-02T13:33:27;5.15;;;4.65;;
15039;SDS011;7617;47.366;8.558;2024-03-02T13:35:57;4.97;;;4.57;;
15039;SDS011;7617;47.366;8.558;2024-03-02T13:38:24;4.80;;;4.40;;
15039;SDS011;7617;47.366;8.558;2024-03-02T13:40:53;4.60;;;4.20;;
15039;SDS011;7617;47.366;8.558;2024-03-02T13:43:22;4.10;;;3.80;;
15039;SDS011;7617;47.366;8.558;2024-03-02T13:45:51;4.20;;;3.90;;
15039;SDS011;7617;47.366;8.558;2024-03-02T13:48:23;4.40;;;4.00;;
15039;SDS011;7617;47.366;8.558;2024-03-02T13:50:53;3.97;;;3.67;;
15039;SDS011;7617;47.366;8.558;2024-03-02T13:53:21;4.00;;;3.63;;
15039;SDS011;7617;47.366;8.558;2024-03-02T13:55:50;3.95;;;3.65;;
15039;SDS011;7617;47.366;8.558;2024-03-02T13:58:18;4.57;;;4.13;;
15039;SDS011;7617;47.366;8.558;2024-03-02T14:00:47;3.63;;;3.30;;
15039;SDS011;7617;47.366;8.558;2024-03-02T14:03:16;4.43;;;4.03;;
15039;SDS011;7617;47.366;8.558;2024-03-02T14:05:48;3.67;;;3.38;;
15039;SDS011;7617;47.366;8.558;2024-03-02T14:08:19;3.63;;;3.33;;
15039;SDS011;7617;47.366;8.558;2024-03-02T14:10:47;4.03;;;3.72;;
15039;SDS011;7617;47.366;8.558;2024-03-02T14:13:16;3.45;;;3.15;;
15039;SDS011;7617;47.366;8.558;2024-03-02T14:15:44;4.28;;;3.88;;
15039;SDS011;7617;47.366;8.558;2024-03-02T14:18:13;3.60;;;3.30;;
15039;SDS011;7617;47.366;8.558;2024-03-02T14:20:41;4.15;;;3.75;;
15039;SDS011;7617;47.366;8.558;2024-03-02T14:23:14;3.92;;;3.50;;
15039;SDS011;7617;47.366;8.558;2024-03-02T14:25:42;4.18;;;3.88;;
15039;SDS011;7617;47.366;8.558;2024-03-02T14:28:11;3.88;;;3.58;;
15039;SDS011;7617;47.366;8.558;2024-03-02T14:30:42;3.55;;;3.25;;
15039;SDS011;7617;47.366;8.558;2024-03-02T14:33:11;3.80;;;3.38;;
15039;SDS011;7617;47.366;8.558;2024-03-02T14:35:40;3.70;;;3.40;;
15039;SDS011;7617;47.366;8.558;2024-03-02T14:38:08;3.85;;;3.55;;
15039;SDS011;7617;47.366;8.558;2024-03-02T14:40:38;3.92;;;3.63;;
15039;SDS011;7617;47.366;8.558;2024-03-02T14:43:06;3.85;;;3.47;;
15039;SDS011;7617;47.366;8.558;2024-03-02T14:45:34;5.25;;;3.45;;
15039;SDS011;7617;47.366;8.558;2024-03-02T14:48:04;3.90;;;3.53;;
15039;SDS011;7617;47.366;8.558;2024-03-02T14:50:32;4.00;;;3.60;;
15039;SDS011;7617;47.366;8.558;2024-03-02T14:53:01;4.15;;;3.67;;
15039;SDS011;7617;47.366;8.558;2024-03-02T14:55:30;3.25;;;2.95;;
15039;SDS011;7617;47.366;8.558;2024-03-02T14:58:00;3.28;;;2.80;;
15039;SDS011;7617;47.366;8.558;2024-03-02T15:00:28;3.33;;;3.03;;
15039;SDS011;7617;47.366;8.558;2024-03-02T15:02:57;3.40;;;3.10;;
15039;SDS011;7617;47.366;8.558;2024-03-02T15:05:25;3.33;;;2.95;;
15039;SDS011;7617;47.366;8.558;2024-03-02T15:07:53;2.90;;;2.70;;
15039;SDS011;7617;47.366;8.558;2024-03-02T15:10:22;3.00;;;2.80;;
15039;SDS011;7617;47.366;8.558;2024-03-02T15:12:50;3.92;;;3.08;;
15039;SDS011;7617;47.366;8.558;2024-03-02T15:15:20;3.30;;;3.00;;
15039;SDS011;7617;47.366;8.558;2024-03-02T15:17:49;3.22;;;2.90;;